Strona główna
METAR-TAF:

METAR-TAF

Lotnisko :

Agen, Francja

Szerokość geograficzna: 44-11N, Długość geograficzna: 000-36E, wysokość: 61 m

Aktualna obserwacja pogody

Raport powstał 47 minut temu, godzina 02:00 UTC
Wiatr 6 kt od zachód
Temperatura 16°C
Wilgotność 94%
Ciśnienie 1003 hPa
Widzialność 10 km lub więcej

METAR: LFBA 040200Z AUTO 27006KT 9999 FEW018/// SCT096/// BKN120/// ///CB 16/15 Q1003

czas: 04:47 (02:47 UTC)


TAF: brakujący

Obserwacja i prognoza pogody dla ponad 4000 lotnisk (raport METAR i TAF).

Dostępne stacje oznaczono żółtymi i czerwonymi punktami na mapie.

Najedź kursorem aby zobaczyć nazwę stacji.

Kliknij aby zobaczyć obserwacje i prognozy pogody.

Aby zmienić mapę: kliknij na zielony przycisk z czarnym krzyżykiem, aby powiększyć; na zielony przycisk z myślnikiem, aby pomniejszyć; na zielone strzałki, aby przejść do map sąsiednich.


METAR-TAF: